createdAt,value
2018-11-29T00:00:14.638Z,-0.33
2018-11-29T00:01:14.665Z,-0.36
2018-11-29T00:02:14.674Z,-0.31
2018-11-29T00:03:14.695Z,-0.28
2018-11-29T00:05:14.720Z,-0.37
2018-11-29T00:06:14.698Z,-0.43
2018-11-29T00:07:14.734Z,-0.33
2018-11-29T00:08:14.736Z,-0.44
2018-11-29T00:09:29.413Z,-0.54
2018-11-29T00:10:14.779Z,-0.44
2018-11-29T00:11:14.760Z,-0.39
2018-11-29T00:12:29.445Z,-0.34
2018-11-29T00:13:14.777Z,-0.39
2018-11-29T00:14:14.822Z,-0.29
2018-11-29T00:15:14.833Z,-0.34
2018-11-29T00:16:14.836Z,-0.39
2018-11-29T00:17:14.862Z,-0.34
2018-11-29T00:18:14.931Z,-0.37
2018-11-29T00:19:14.875Z,-0.42
2018-11-29T00:20:14.889Z,-0.36
2018-11-29T00:21:14.870Z,-0.44
2018-11-29T00:22:14.910Z,-0.37
2018-11-29T00:23:14.895Z,-0.44
2018-11-29T00:24:14.920Z,-0.4
2018-11-29T00:25:29.571Z,-0.4
2018-11-29T00:26:14.947Z,-0.39
2018-11-29T00:27:14.971Z,-0.43
2018-11-29T00:28:29.610Z,-0.37
2018-11-29T00:29:15.090Z,-0.33
2018-11-29T00:30:14.973Z,-0.28
2018-11-29T00:31:15.002Z,-0.33
2018-11-29T00:32:14.990Z,-0.37
2018-11-29T00:33:15.035Z,-0.34
2018-11-29T00:34:15.045Z,-0.39
2018-11-29T00:35:15.046Z,-0.36
2018-11-29T00:36:15.041Z,-0.4
2018-11-29T00:37:15.049Z,-0.33
2018-11-29T00:38:15.094Z,-0.36
2018-11-29T00:39:15.075Z,-0.37
2018-11-29T00:40:15.114Z,-0.34
2018-11-29T00:41:15.093Z,-0.39
2018-11-29T00:42:15.138Z,-0.4
2018-11-29T00:43:15.115Z,-0.31
2018-11-29T00:44:29.792Z,-0.34
2018-11-29T00:45:15.153Z,-0.29
2018-11-29T00:46:15.181Z,-0.36
2018-11-29T00:47:15.157Z,-0.37
2018-11-29T00:48:15.206Z,-0.37
2018-11-29T00:49:15.184Z,-0.33
2018-11-29T00:50:15.224Z,-0.4
2018-11-29T00:51:15.207Z,-0.33
2018-11-29T00:52:15.249Z,-0.4
2018-11-29T00:53:15.233Z,-0.37
2018-11-29T00:54:29.899Z,-0.33
2018-11-29T00:55:15.279Z,-0.36
2018-11-29T00:56:15.302Z,-0.46
2018-11-29T00:57:15.307Z,-0.44
2018-11-29T00:58:15.310Z,-0.37
2018-11-29T00:59:29.959Z,-0.37
2018-11-29T01:01:15.334Z,-0.33
2018-11-29T01:02:15.341Z,-0.44
2018-11-29T01:03:15.379Z,-0.37
2018-11-29T01:04:15.348Z,-0.39
2018-11-29T01:05:15.364Z,-0.42
2018-11-29T01:06:15.389Z,-0.42
2018-11-29T01:07:15.416Z,-0.52
2018-11-29T01:08:15.427Z,-0.55
2018-11-29T01:10:30.099Z,-0.55
2018-11-29T01:11:15.432Z,-0.44
2018-11-29T01:12:15.443Z,-0.4
2018-11-29T01:13:15.464Z,-0.44
2018-11-29T01:14:15.495Z,-0.55
2018-11-29T01:15:15.476Z,-0.54
2018-11-29T01:16:15.513Z,-0.46
2018-11-29T01:17:15.547Z,-0.47
2018-11-29T01:18:15.545Z,-0.46
2018-11-29T01:19:15.535Z,-0.57
2018-11-29T01:20:15.565Z,-0.57
2018-11-29T01:21:15.546Z,-0.52
2018-11-29T01:23:15.605Z,-0.54
2018-11-29T01:26:15.673Z,-0.54
2018-11-29T01:27:15.632Z,-0.52
2018-11-29T01:28:30.278Z,-0.39
2018-11-29T01:29:15.631Z,-0.43
2018-11-29T01:30:15.680Z,-0.46
2018-11-29T01:31:30.314Z,-0.47
2018-11-29T01:32:15.695Z,-0.54
2018-11-29T01:33:15.691Z,-0.51
2018-11-29T01:34:15.719Z,-0.47
2018-11-29T01:35:15.695Z,-0.44
2018-11-29T01:37:15.748Z,-0.49
2018-11-29T01:38:15.752Z,-0.51
2018-11-29T01:39:15.775Z,-0.6
2018-11-29T01:40:15.766Z,-0.52
2018-11-29T01:41:15.798Z,-0.6
2018-11-29T01:42:15.770Z,-0.55
2018-11-29T01:43:15.815Z,-0.6
2018-11-29T01:44:15.816Z,-0.57
2018-11-29T01:45:15.811Z,-0.58
2018-11-29T01:46:15.817Z,-0.54
2018-11-29T01:47:30.509Z,-0.52
2018-11-29T01:48:15.847Z,-0.49
2018-11-29T01:49:15.885Z,-0.54
2018-11-29T01:50:15.870Z,-0.55
2018-11-29T01:51:15.909Z,-0.55
2018-11-29T01:52:15.884Z,-0.46
2018-11-29T01:53:15.916Z,-0.55
2018-11-29T01:54:15.925Z,-0.55
2018-11-29T01:55:15.952Z,-0.54
2018-11-29T01:56:15.966Z,-0.46
2018-11-29T01:57:30.603Z,-0.46
2018-11-29T01:59:15.966Z,-0.54
2018-11-29T02:00:16.006Z,-0.55
2018-11-29T02:01:16.022Z,-0.49
2018-11-29T02:02:16.031Z,-0.51
2018-11-29T02:03:30.686Z,-0.57
2018-11-29T02:04:16.028Z,-0.51
2018-11-29T02:05:16.061Z,-0.65
2018-11-29T02:06:16.140Z,-0.61
2018-11-29T02:07:16.085Z,-0.55
2018-11-29T02:08:16.065Z,-0.52
2018-11-29T02:09:16.103Z,-0.54
2018-11-29T02:10:16.090Z,-0.67
2018-11-29T02:11:16.110Z,-0.57
2018-11-29T02:12:16.141Z,-0.54
2018-11-29T02:13:16.152Z,-0.6
2018-11-29T02:14:16.133Z,-0.61
2018-11-29T02:15:16.157Z,-0.6
2018-11-29T02:16:16.151Z,-0.64
2018-11-29T02:17:30.843Z,-0.7
2018-11-29T02:18:16.190Z,-0.6
2018-11-29T02:19:30.866Z,-0.61
2018-11-29T02:20:16.239Z,-0.64
2018-11-29T02:21:16.207Z,-0.65
2018-11-29T02:22:16.247Z,-0.6
2018-11-29T02:23:16.234Z,-0.62
2018-11-29T02:24:16.273Z,-0.73
2018-11-29T02:27:16.307Z,-0.6
2018-11-29T02:28:16.292Z,-0.6
2018-11-29T02:29:16.313Z,-0.62
2018-11-29T02:30:16.322Z,-0.69
2018-11-29T02:31:31.000Z,-0.65
2018-11-29T02:32:16.346Z,-0.58
2018-11-29T02:33:16.375Z,-0.67
2018-11-29T02:34:31.034Z,-0.64
2018-11-29T02:35:16.365Z,-0.65
2018-11-29T02:36:16.418Z,-0.65
2018-11-29T02:37:16.144Z,-0.54
2018-11-29T02:38:16.412Z,-0.62
2018-11-29T02:39:16.441Z,-0.46
2018-11-29T02:40:16.417Z,-0.52
2018-11-29T02:42:16.479Z,-0.39
2018-11-29T02:43:16.457Z,-0.4
2018-11-29T02:45:16.496Z,-0.42
2018-11-29T02:46:16.522Z,-0.39
2018-11-29T02:47:31.155Z,-0.4
2018-11-29T02:48:16.506Z,-0.44
2018-11-29T02:49:16.555Z,-0.37
2018-11-29T02:51:16.564Z,-0.37
2018-11-29T02:52:16.603Z,-0.23
2018-11-29T02:53:16.565Z,-0.36
2018-11-29T02:54:16.627Z,-0.33
2018-11-29T02:55:16.611Z,-0.23
2018-11-29T02:56:16.384Z,-0.25
2018-11-29T02:57:16.610Z,-0.29
2018-11-29T02:58:31.282Z,-0.23
2018-11-29T02:59:16.651Z,-0.23
2018-11-29T03:00:16.660Z,-0.21
2018-11-29T03:01:16.684Z,-0.25
2018-11-29T03:02:16.697Z,-0.26
2018-11-29T03:03:16.707Z,-0.08
2018-11-29T03:04:16.686Z,-0.22
2018-11-29T03:05:16.754Z,-0.21
2018-11-29T03:06:31.367Z,-0.14
2018-11-29T03:07:16.748Z,-0.14
2018-11-29T03:08:16.731Z,-0.14
2018-11-29T03:09:16.761Z,-0.08
2018-11-29T03:11:16.806Z,-0.16
2018-11-29T03:12:16.813Z,-0.22
2018-11-29T03:13:16.790Z,-0.28
2018-11-29T03:15:16.563Z,-0.28
2018-11-29T03:16:17.443Z,-0.15
2018-11-29T03:17:16.844Z,-0.05
2018-11-29T03:18:16.877Z,-0.19
2018-11-29T03:19:16.903Z,-0.15
2018-11-29T03:20:16.885Z,-0.18
2018-11-29T03:21:16.893Z,-0.14
2018-11-29T03:22:31.546Z,-0.15
2018-11-29T03:23:16.918Z,-0.19
2018-11-29T03:24:16.922Z,-0.19
2018-11-29T03:25:16.947Z,-0.19
2018-11-29T03:26:16.967Z,-0.31
2018-11-29T03:27:16.947Z,-0.22
2018-11-29T03:28:16.982Z,-0.23
2018-11-29T03:29:16.963Z,-0.15
2018-11-29T03:30:31.661Z,-0.14
2018-11-29T03:31:31.667Z,-0.08
2018-11-29T03:32:31.683Z,-0.14
2018-11-29T03:33:16.777Z,-0.16
2018-11-29T03:34:17.064Z,-0.19
2018-11-29T03:35:17.116Z,-0.21
2018-11-29T03:36:17.081Z,-0.21
2018-11-29T03:37:17.077Z,-0.22
2018-11-29T03:38:31.756Z,-0.11
2018-11-29T03:39:17.077Z,-0.08
2018-11-29T03:40:17.121Z,-0.18
2018-11-29T03:41:17.138Z,-0.08
2018-11-29T03:42:17.135Z,-0.04
2018-11-29T03:43:17.156Z,-0.11
2018-11-29T03:44:17.131Z,-0.18
2018-11-29T03:45:17.180Z,-0.18
2018-11-29T03:46:17.159Z,-0.29
2018-11-29T03:47:31.830Z,-0.26
2018-11-29T03:48:17.207Z,-0.19
2018-11-29T03:50:17.244Z,-0.14
2018-11-29T03:51:31.870Z,-0.08
2018-11-29T03:52:17.260Z,-0.15
2018-11-29T03:53:17.240Z,-0.04
2018-11-29T03:54:31.914Z,-0.18
2018-11-29T03:55:17.298Z,-0.14
2018-11-29T03:56:17.274Z,-0.19
2018-11-29T03:57:17.316Z,-0.11
2018-11-29T03:58:17.320Z,-0.22
2018-11-29T03:59:17.326Z,-0.18
2018-11-29T04:00:17.357Z,-0.19
2018-11-29T04:01:17.361Z,-0.14
2018-11-29T04:03:32.029Z,-0.15
2018-11-29T04:04:17.392Z,-0.15
2018-11-29T04:05:17.472Z,-0.15
2018-11-29T04:06:32.057Z,-0.05
2018-11-29T04:07:17.410Z,-0.04
2018-11-29T04:08:17.438Z,-0.05
2018-11-29T04:09:32.080Z,-0.07
2018-11-29T04:10:17.465Z,-0.11
2018-11-29T04:11:17.437Z,-0.18
2018-11-29T04:12:17.519Z,-0.16
2018-11-29T04:13:17.464Z,-0.07
2018-11-29T04:14:17.506Z,-0.11
2018-11-29T04:15:17.556Z,-0.1
2018-11-29T04:16:17.516Z,-0.08
2018-11-29T04:17:17.510Z,-0.18
2018-11-29T04:18:17.517Z,-0.11
2018-11-29T04:19:17.558Z,-0.05
2018-11-29T04:20:17.555Z,-0.1
2018-11-29T04:21:17.586Z,-0.08
2018-11-29T04:22:17.568Z,-0.15
2018-11-29T04:23:17.609Z,-0.08
2018-11-29T04:24:17.586Z,-0.1
2018-11-29T04:25:17.383Z,-0.15
2018-11-29T04:26:17.370Z,-0.1
2018-11-29T04:27:17.653Z,-0.21
2018-11-29T04:28:17.628Z,-0.19
2018-11-29T04:29:17.668Z,-0.19
2018-11-29T04:30:17.685Z,-0.11
2018-11-29T04:31:17.702Z,-0.15
2018-11-29T04:32:17.674Z,-0.21
2018-11-29T04:33:17.712Z,-0.11
2018-11-29T04:34:32.360Z,-0.08
2018-11-29T04:35:17.748Z,-0.15
2018-11-29T04:36:17.733Z,-0.08
2018-11-29T04:37:17.768Z,-0.18
2018-11-29T04:38:17.777Z,-0.16
2018-11-29T04:39:17.759Z,-0.14
2018-11-29T04:40:17.776Z,-0.08
2018-11-29T04:41:32.454Z,-0.08
2018-11-29T04:42:17.792Z,-0.08
2018-11-29T04:43:17.846Z,-0.04
2018-11-29T04:44:17.807Z,-0.07
2018-11-29T04:45:17.849Z,-0.03
2018-11-29T04:46:17.845Z,-0.04
2018-11-29T04:47:17.874Z,-0.07
2018-11-29T04:48:17.887Z,-0.04
2018-11-29T04:49:17.876Z,-0.05
2018-11-29T04:50:32.559Z,-0.1
2018-11-29T04:51:17.885Z,-0.15
2018-11-29T04:52:17.908Z,-0.19
2018-11-29T04:53:17.923Z,-0.19
2018-11-29T04:54:17.954Z,-0.18
2018-11-29T04:55:32.588Z,-0.21
2018-11-29T04:56:17.974Z,-0.33
2018-11-29T04:57:32.616Z,-0.26
2018-11-29T04:58:18.005Z,-0.16
2018-11-29T04:59:18.013Z,-0.21
2018-11-29T05:00:18.014Z,-0.21
2018-11-29T05:01:17.998Z,-0.1
2018-11-29T05:02:18.010Z,-0.22
2018-11-29T05:04:18.049Z,-0.16
2018-11-29T05:05:18.088Z,-0.16
2018-11-29T05:06:18.056Z,-0.25
2018-11-29T05:07:18.110Z,-0.21
2018-11-29T05:08:18.095Z,-0.18
2018-11-29T05:09:18.109Z,-0.11
2018-11-29T05:10:18.115Z,-0.21
2018-11-29T05:11:18.135Z,-0.1
2018-11-29T05:12:18.156Z,-0.11
2018-11-29T05:13:32.796Z,-0.22
2018-11-29T05:14:18.175Z,-0.16
2018-11-29T05:15:18.155Z,-0.16
2018-11-29T05:16:18.187Z,-0.19
2018-11-29T05:17:18.187Z,-0.1
2018-11-29T05:18:18.272Z,-0.23
2018-11-29T05:19:17.983Z,-0.36
2018-11-29T05:20:18.235Z,-0.21
2018-11-29T05:21:18.227Z,-0.16
2018-11-29T05:22:18.272Z,-0.16
2018-11-29T05:23:32.908Z,-0.23
2018-11-29T05:24:18.295Z,-0.23
2018-11-29T05:25:19.594Z,-0.22
2018-11-29T05:26:32.959Z,-0.18
2018-11-29T05:27:18.305Z,-0.16
2018-11-29T05:28:18.326Z,-0.11
2018-11-29T05:29:32.993Z,-0.1
2018-11-29T05:30:18.328Z,-0.1
2018-11-29T05:31:18.377Z,-0.18
2018-11-29T05:32:18.352Z,-0.21
2018-11-29T05:33:18.377Z,-0.1
2018-11-29T05:34:18.408Z,-0.23
2018-11-29T05:35:18.404Z,-0.28
2018-11-29T05:36:18.173Z,-0.23
2018-11-29T05:37:18.399Z,-0.29
2018-11-29T05:39:33.088Z,-0.26
2018-11-29T05:40:33.096Z,-0.16
2018-11-29T05:41:18.481Z,-0.15
2018-11-29T05:42:33.118Z,-0.16
2018-11-29T05:43:18.504Z,-0.11
2018-11-29T05:44:33.164Z,-0.22
2018-11-29T05:45:18.498Z,-0.14
2018-11-29T05:46:18.517Z,-0.15
2018-11-29T05:47:18.519Z,-0.23
2018-11-29T05:48:18.559Z,-0.08
2018-11-29T05:49:18.537Z,-0.1
2018-11-29T05:50:18.590Z,-0.05
2018-11-29T05:51:33.224Z,-0.08
2018-11-29T05:53:18.587Z,-0.1
2018-11-29T05:54:18.636Z,-0.1
2018-11-29T05:55:33.266Z,-0.21
2018-11-29T05:56:18.638Z,-0.15
2018-11-29T05:57:33.287Z,-0.11
2018-11-29T05:58:18.648Z,-0.11
2018-11-29T05:59:18.689Z,0.02
2018-11-29T06:00:18.670Z,-0.08
2018-11-29T06:01:18.706Z,-0.04
2018-11-29T06:02:18.684Z,-0.1
2018-11-29T06:03:18.730Z,-0.16
2018-11-29T06:04:18.706Z,-0.11
2018-11-29T06:05:18.741Z,-0.16
2018-11-29T06:06:33.394Z,-0.16
2018-11-29T06:07:18.757Z,-0.16
2018-11-29T06:08:18.783Z,-0.15
2018-11-29T06:09:18.768Z,-0.23
2018-11-29T06:10:18.803Z,-0.18
2018-11-29T06:11:18.785Z,-0.07
2018-11-29T06:12:18.832Z,-0.07
2018-11-29T06:13:18.806Z,-0.07
2018-11-29T06:14:18.852Z,-0.14
2018-11-29T06:15:18.863Z,-0.11
2018-11-29T06:16:33.502Z,-0.18
2018-11-29T06:17:18.880Z,-0.14
2018-11-29T06:18:18.895Z,-0.07
2018-11-29T06:19:18.875Z,-0.07
2018-11-29T06:20:18.923Z,-0.16
2018-11-29T06:21:18.897Z,-0.11
2018-11-29T06:22:18.931Z,-0.07
2018-11-29T06:23:18.922Z,-0.07
2018-11-29T06:25:18.984Z,-0.16
2018-11-29T06:26:18.956Z,-0.04
2018-11-29T06:27:18.977Z,-0.04
2018-11-29T06:28:33.636Z,0.13
2018-11-29T06:29:19.022Z,-0.04
2018-11-29T06:30:18.997Z,-0.01
2018-11-29T06:31:19.043Z,0.02
2018-11-29T06:32:33.698Z,-0.04
2018-11-29T06:33:19.051Z,0.02
2018-11-29T06:34:19.088Z,-0.07
2018-11-29T06:35:19.053Z,-0.08
2018-11-29T06:36:19.096Z,-0.03
2018-11-29T06:37:19.100Z,-0.07
2018-11-29T06:38:19.118Z,-0.03
2018-11-29T06:39:19.100Z,-0.04
2018-11-29T06:40:19.154Z,-0.03
2018-11-29T06:41:19.119Z,-0.03
2018-11-29T06:42:19.173Z,-0.01
2018-11-29T06:43:19.143Z,-0.01
2018-11-29T06:44:33.835Z,0.03
2018-11-29T06:45:19.174Z,0.03
2018-11-29T06:46:19.205Z,-0.04
2018-11-29T06:47:19.211Z,-0.08
2018-11-29T06:48:33.880Z,-0.1
2018-11-29T06:49:19.210Z,-0.04
2018-11-29T06:50:19.254Z,-0.07
2018-11-29T06:51:19.235Z,-0.1
2018-11-29T06:52:19.263Z,0.02
2018-11-29T06:53:19.275Z,-0.1
2018-11-29T06:54:19.300Z,-0.05
2018-11-29T06:55:19.313Z,-0.05
2018-11-29T06:58:19.103Z,-0.05
2018-11-29T07:00:33.993Z,-0.1
2018-11-29T07:01:19.366Z,-0.11
2018-11-29T07:02:19.397Z,-0.1
2018-11-29T07:03:19.369Z,-0.05
2018-11-29T07:04:34.038Z,0.02
2018-11-29T07:05:19.396Z,-0.07
2018-11-29T07:06:19.412Z,-0.05
2018-11-29T07:07:19.431Z,-0.14
2018-11-29T07:08:19.434Z,-0.01
2018-11-29T07:09:20.393Z,0
2018-11-29T07:10:19.452Z,-0.03
2018-11-29T07:11:19.458Z,-0.15
2018-11-29T07:12:19.479Z,-0.1
2018-11-29T07:13:19.478Z,-0.08
2018-11-29T07:14:19.493Z,-0.07
2018-11-29T07:15:19.501Z,-0.1
2018-11-29T07:16:34.177Z,0.03
2018-11-29T07:17:19.530Z,-0.15
2018-11-29T07:18:19.535Z,0.03
2018-11-29T07:19:34.210Z,0
2018-11-29T07:20:19.561Z,0
2018-11-29T07:21:19.598Z,0.02
2018-11-29T07:22:19.583Z,-0.03
2018-11-29T07:23:19.591Z,0.07
2018-11-29T07:24:19.611Z,0.04
2018-11-29T07:25:19.618Z,0.02
2018-11-29T07:26:19.633Z,0
2018-11-29T07:27:19.639Z,0.08
2018-11-29T07:28:19.653Z,0.04
2018-11-29T07:29:21.745Z,0
2018-11-29T07:30:19.683Z,0.07
2018-11-29T07:31:19.684Z,0.07
2018-11-29T07:32:19.699Z,0.04
2018-11-29T07:33:19.708Z,0.18
2018-11-29T07:34:19.720Z,0.17
2018-11-29T07:35:19.739Z,0.15
2018-11-29T07:36:19.755Z,0.32
2018-11-29T07:37:22.253Z,0.18
2018-11-29T07:38:19.763Z,0.21
2018-11-29T07:40:19.795Z,0.26
2018-11-29T07:41:34.463Z,0.33
2018-11-29T07:42:19.809Z,0.33
2018-11-29T07:43:19.824Z,0.32
2018-11-29T07:44:19.873Z,0.21
2018-11-29T07:45:19.850Z,0.26
2018-11-29T07:46:34.517Z,0.29
2018-11-29T07:47:19.867Z,0.35
2018-11-29T07:48:19.875Z,0.32
2018-11-29T07:49:19.889Z,0.36
2018-11-29T07:50:19.899Z,0.53
2018-11-29T07:51:34.573Z,0.44
2018-11-29T07:52:19.927Z,0.46
2018-11-29T07:53:21.080Z,0.47
2018-11-29T07:54:19.948Z,0.53
2018-11-29T07:55:34.371Z,0.57
2018-11-29T07:57:19.994Z,0.61
2018-11-29T07:58:20.000Z,0.61
2018-11-29T07:59:20.005Z,0.66
2018-11-29T08:00:20.022Z,0.66
2018-11-29T08:01:20.031Z,0.78
2018-11-29T08:02:20.046Z,0.69
2018-11-29T08:03:20.052Z,0.7
2018-11-29T08:04:20.066Z,0.72
2018-11-29T08:05:20.678Z,0.75
2018-11-29T08:06:20.088Z,0.69
2018-11-29T08:07:34.760Z,0.8
2018-11-29T08:08:20.122Z,0.88
2018-11-29T08:09:19.872Z,0.98
2018-11-29T08:10:20.137Z,0.86
2018-11-29T08:11:20.148Z,0.88
2018-11-29T08:12:20.158Z,0.88
2018-11-29T08:13:20.176Z,1
2018-11-29T08:14:34.848Z,0.94
2018-11-29T08:15:20.197Z,0.97
2018-11-29T08:16:20.216Z,0.96
2018-11-29T08:17:20.221Z,0.86
2018-11-29T08:18:20.230Z,0.9
2018-11-29T08:19:20.244Z,0.86
2018-11-29T08:20:20.258Z,0.79
2018-11-29T08:21:20.263Z,0.73
2018-11-29T08:22:20.279Z,0.66
2018-11-29T08:23:34.950Z,0.72
2018-11-29T08:24:20.302Z,0.69
2018-11-29T08:25:20.313Z,0.8
2018-11-29T08:26:20.326Z,0.88
2018-11-29T08:27:20.337Z,0.87
2018-11-29T08:28:20.348Z,0.98
2018-11-29T08:29:20.363Z,0.9
2018-11-29T08:31:20.387Z,1
2018-11-29T08:32:20.404Z,0.96
2018-11-29T08:33:20.412Z,1.06
2018-11-29T08:34:20.445Z,1.05
2018-11-29T08:35:20.443Z,1
2018-11-29T08:36:20.446Z,1.04
2018-11-29T08:37:20.458Z,1.11
2018-11-29T08:38:20.473Z,1.05
2018-11-29T08:39:35.145Z,1.05
2018-11-29T08:40:20.511Z,1.23
2018-11-29T08:41:20.518Z,1.18
2018-11-29T08:42:20.516Z,1.3
2018-11-29T08:43:20.532Z,1.37
2018-11-29T08:44:20.549Z,1.41
2018-11-29T08:45:20.563Z,1.55
2018-11-29T08:46:20.580Z,1.41
2018-11-29T08:47:20.581Z,1.45
2018-11-29T08:48:20.591Z,1.47
2018-11-29T08:49:21.258Z,1.41
2018-11-29T08:50:20.619Z,1.51
2018-11-29T08:51:20.628Z,1.5
2018-11-29T08:52:20.644Z,1.41
2018-11-29T08:53:20.654Z,1.58
2018-11-29T08:54:35.332Z,1.6
2018-11-29T08:55:20.686Z,1.73
2018-11-29T08:56:20.689Z,1.91
2018-11-29T08:57:20.761Z,2.09
2018-11-29T08:58:20.729Z,2.03
2018-11-29T08:59:20.728Z,2.14
2018-11-29T09:01:20.756Z,2.2
2018-11-29T09:02:20.768Z,2.23
2018-11-29T09:03:20.789Z,2.21
2018-11-29T09:04:20.796Z,2.35
2018-11-29T09:05:21.318Z,2.41
2018-11-29T09:06:20.825Z,2.45
2018-11-29T09:07:20.830Z,2.48
2018-11-29T09:08:21.000Z,2.52
2018-11-29T09:09:20.859Z,2.52
2018-11-29T09:10:20.876Z,2.49
2018-11-29T09:11:20.894Z,2.6
2018-11-29T09:12:20.894Z,2.49
2018-11-29T09:13:35.577Z,2.53
2018-11-29T09:14:20.949Z,2.48
2018-11-29T09:15:20.941Z,2.53
2018-11-29T09:16:20.955Z,2.54
2018-11-29T09:17:20.969Z,2.48
2018-11-29T09:18:35.636Z,2.54
2018-11-29T09:19:20.988Z,2.53
2018-11-29T09:20:35.660Z,2.74
2018-11-29T09:21:21.016Z,2.64
2018-11-29T09:23:21.045Z,2.78
2018-11-29T09:25:21.065Z,2.59
2018-11-29T09:26:35.793Z,2.66
2018-11-29T09:27:21.091Z,2.53
2018-11-29T09:28:21.104Z,2.48
2018-11-29T09:29:21.131Z,2.71
2018-11-29T09:30:21.129Z,2.82
2018-11-29T09:31:21.155Z,2.82
2018-11-29T09:32:35.821Z,2.84
2018-11-29T09:33:21.182Z,2.9
2018-11-29T09:34:21.188Z,2.87
2018-11-29T09:35:35.858Z,2.85
2018-11-29T09:36:35.872Z,2.84
2018-11-29T09:37:21.225Z,2.79
2018-11-29T09:38:21.240Z,2.9
2018-11-29T09:39:21.250Z,2.82
2018-11-29T09:40:21.264Z,2.82
2018-11-29T09:41:21.346Z,2.81
2018-11-29T09:42:35.957Z,2.81
2018-11-29T09:44:21.330Z,2.93
2018-11-29T09:45:21.329Z,2.95
2018-11-29T09:46:21.354Z,2.99
2018-11-29T09:47:21.359Z,3.06
2018-11-29T09:48:21.368Z,2.93
2018-11-29T09:49:21.383Z,2.96
2018-11-29T09:50:21.401Z,2.92
2018-11-29T09:51:21.406Z,2.92
2018-11-29T09:52:21.424Z,2.84
2018-11-29T09:53:21.435Z,2.92
2018-11-29T09:54:21.455Z,2.92
2018-11-29T09:55:36.119Z,2.95
2018-11-29T09:56:21.472Z,2.97
2018-11-29T09:57:21.486Z,3
2018-11-29T09:58:36.160Z,3.08
2018-11-29T10:00:27.413Z,3.1
2018-11-29T10:01:21.651Z,3.03
2018-11-29T10:02:21.556Z,3.02
2018-11-29T10:04:21.578Z,3
2018-11-29T10:05:21.591Z,2.84
2018-11-29T10:06:21.617Z,2.93
2018-11-29T10:07:21.621Z,2.87
2018-11-29T10:08:28.465Z,2.9
2018-11-29T10:09:21.648Z,2.85
2018-11-29T10:10:21.661Z,3.02
2018-11-29T10:11:21.672Z,3.03
2018-11-29T10:12:21.694Z,3
2018-11-29T10:13:21.700Z,3.06
2018-11-29T10:14:36.379Z,3.05
2018-11-29T10:16:21.747Z,3.18
2018-11-29T10:17:21.754Z,3.14
2018-11-29T10:20:21.895Z,3.21
2018-11-29T10:21:21.806Z,3.08
2018-11-29T10:22:21.823Z,3.15
2018-11-29T10:23:21.852Z,3.2
2018-11-29T10:24:21.848Z,3.18
2018-11-29T10:25:36.629Z,3.11
2018-11-29T10:26:21.944Z,3.05
2018-11-29T10:27:21.886Z,3.17
2018-11-29T10:28:22.002Z,3.17
2018-11-29T10:29:36.575Z,3.05
2018-11-29T10:30:21.929Z,3.15
2018-11-29T10:31:21.939Z,3.15
2018-11-29T10:32:21.959Z,3.2
2018-11-29T10:33:21.967Z,3.08
2018-11-29T10:35:21.996Z,3.18
2018-11-29T10:37:22.039Z,3.15
2018-11-29T10:38:22.032Z,3.06
2018-11-29T10:39:22.049Z,3
2018-11-29T10:40:22.080Z,3.11
2018-11-29T10:41:22.136Z,3.21
2018-11-29T10:42:36.746Z,3.21
2018-11-29T10:43:22.101Z,3.2
2018-11-29T10:44:22.113Z,3.13
2018-11-29T10:45:22.132Z,3.29
2018-11-29T10:46:22.148Z,3.2
2018-11-29T10:47:22.154Z,3.23
2018-11-29T10:48:22.169Z,3.21
2018-11-29T10:50:22.201Z,3.17
2018-11-29T10:51:23.091Z,3.18
2018-11-29T10:52:22.225Z,3.2
2018-11-29T10:54:22.282Z,3.17
2018-11-29T10:55:22.264Z,3.18
2018-11-29T10:56:22.338Z,3.2
2018-11-29T10:57:36.951Z,3.15
2018-11-29T10:58:22.309Z,3.15
2018-11-29T10:59:22.330Z,3.13
2018-11-29T11:00:22.331Z,3.15
2018-11-29T11:01:37.012Z,3.21
2018-11-29T11:02:22.541Z,3.15
2018-11-29T11:03:22.369Z,3.08
2018-11-29T11:04:22.384Z,3.21
2018-11-29T11:05:22.515Z,3.11
2018-11-29T11:06:22.412Z,3.13
2018-11-29T11:07:22.422Z,3.03
2018-11-29T11:08:22.456Z,3
2018-11-29T11:09:22.518Z,3.08
2018-11-29T11:10:22.470Z,3.14
2018-11-29T11:11:22.482Z,3.2
2018-11-29T11:12:23.571Z,3.17
2018-11-29T11:13:22.510Z,3.14
2018-11-29T11:14:22.522Z,3.13
2018-11-29T11:15:22.535Z,3
2018-11-29T11:16:22.550Z,3.15
2018-11-29T11:17:37.219Z,3.05
2018-11-29T11:18:22.568Z,3
2018-11-29T11:20:22.615Z,3
2018-11-29T11:22:22.627Z,2.99
2018-11-29T11:24:22.653Z,3
2018-11-29T11:25:22.667Z,3.18
2018-11-29T11:26:22.679Z,3
2018-11-29T11:27:22.690Z,3.02
2018-11-29T11:28:22.706Z,2.95
2018-11-29T11:29:22.718Z,3.05
2018-11-29T11:30:37.613Z,2.96
2018-11-29T11:31:22.743Z,3.1
2018-11-29T11:32:22.759Z,3.05
2018-11-29T11:33:37.431Z,3.08
2018-11-29T11:34:22.787Z,3.11
2018-11-29T11:35:22.798Z,3.17
2018-11-29T11:37:22.826Z,3.17
2018-11-29T11:38:37.530Z,3.18
2018-11-29T11:40:22.862Z,3.2
2018-11-29T11:41:22.981Z,3.21
2018-11-29T11:42:22.887Z,3.28
2018-11-29T11:43:22.992Z,3.2
2018-11-29T11:44:37.576Z,3.26
2018-11-29T11:45:22.932Z,3.33
2018-11-29T11:46:22.945Z,3.35
2018-11-29T11:47:22.958Z,3.36
2018-11-29T11:48:22.975Z,3.35
2018-11-29T11:49:37.641Z,3.39
2018-11-29T11:50:23.007Z,3.33
2018-11-29T11:52:23.031Z,3.35
2018-11-29T11:54:23.047Z,3.43
2018-11-29T11:55:29.879Z,3.36
2018-11-29T11:56:23.074Z,3.4
2018-11-29T11:57:23.088Z,3.48
2018-11-29T11:58:23.104Z,3.5
2018-11-29T11:59:23.111Z,3.42
2018-11-29T12:00:23.223Z,3.48
2018-11-29T12:01:37.942Z,3.5
2018-11-29T12:02:29.980Z,3.42
2018-11-29T12:03:23.169Z,3.51
2018-11-29T12:04:37.854Z,3.51
2018-11-29T12:05:23.198Z,3.48
2018-11-29T12:06:23.207Z,3.62
2018-11-29T12:07:23.223Z,3.62
2018-11-29T12:08:23.235Z,3.57
2018-11-29T12:10:23.264Z,3.47
2018-11-29T12:11:23.278Z,3.45
2018-11-29T12:12:23.293Z,3.33
2018-11-29T12:13:23.302Z,3.6
2018-11-29T12:14:37.974Z,3.57
2018-11-29T12:15:23.336Z,3.6
2018-11-29T12:16:23.344Z,3.48
2018-11-29T12:17:23.357Z,3.51
2018-11-29T12:18:23.427Z,3.61
2018-11-29T12:19:23.383Z,3.58
2018-11-29T12:20:23.399Z,3.61
2018-11-29T12:21:23.422Z,3.58
2018-11-29T12:22:23.421Z,3.62
2018-11-29T12:23:23.431Z,3.62
2018-11-29T12:24:23.450Z,3.65
2018-11-29T12:25:23.459Z,3.65
2018-11-29T12:26:23.499Z,3.66
2018-11-29T12:27:23.493Z,3.55
2018-11-29T12:28:23.259Z,3.6
2018-11-29T12:29:23.538Z,3.62
2018-11-29T12:30:23.534Z,3.62
2018-11-29T12:31:25.086Z,3.57
2018-11-29T12:32:23.561Z,3.61
2018-11-29T12:33:23.569Z,3.6
2018-11-29T12:34:23.586Z,3.58
2018-11-29T12:35:23.594Z,3.66
2018-11-29T12:36:38.268Z,3.6
2018-11-29T12:37:23.620Z,3.58
2018-11-29T12:38:23.642Z,3.6
2018-11-29T12:39:38.315Z,3.58
2018-11-29T12:40:23.668Z,3.76
2018-11-29T12:41:23.675Z,3.8
2018-11-29T12:42:23.737Z,3.73
2018-11-29T12:43:23.710Z,3.79
2018-11-29T12:44:23.715Z,3.84
2018-11-29T12:45:38.393Z,3.93
2018-11-29T12:46:24.014Z,3.98
2018-11-29T12:47:38.415Z,3.86
2018-11-29T12:48:23.772Z,3.9
2018-11-29T12:49:23.784Z,3.87
2018-11-29T12:50:23.801Z,3.88
2018-11-29T12:51:23.807Z,3.86
2018-11-29T12:52:38.487Z,3.86
2018-11-29T12:54:23.852Z,3.97
2018-11-29T12:55:23.873Z,3.98
2018-11-29T12:56:38.545Z,3.94
2018-11-29T12:57:23.899Z,4.04
2018-11-29T12:58:23.938Z,4
2018-11-29T12:59:23.924Z,4.04
2018-11-29T13:00:23.960Z,4.02
2018-11-29T13:01:23.944Z,4.06
2018-11-29T13:02:23.966Z,3.98
2018-11-29T13:03:23.972Z,4.04
2018-11-29T13:04:23.989Z,4.05
2018-11-29T13:05:24.007Z,4.09
2018-11-29T13:06:24.013Z,4.02
2018-11-29T13:07:24.039Z,4.05
2018-11-29T13:08:38.701Z,3.97
2018-11-29T13:09:24.063Z,3.98
2018-11-29T13:10:24.068Z,4.04
2018-11-29T13:11:24.083Z,4.11
2018-11-29T13:12:24.093Z,4.09
2018-11-29T13:13:27.490Z,3.98
2018-11-29T13:14:24.216Z,4.02
2018-11-29T13:15:24.696Z,4.05
2018-11-29T13:16:24.153Z,4.14
2018-11-29T13:17:24.174Z,4.08
2018-11-29T13:18:24.182Z,4.05
2018-11-29T13:19:38.850Z,4.11
2018-11-29T13:20:24.205Z,4.18
2018-11-29T13:22:24.231Z,4.15
2018-11-29T13:23:24.244Z,4.24
2018-11-29T13:24:38.672Z,4.27
2018-11-29T13:25:24.272Z,4.3
2018-11-29T13:26:24.287Z,4.4
2018-11-29T13:27:24.300Z,4.33
2018-11-29T13:28:24.312Z,4.5
2018-11-29T13:29:24.415Z,4.36
2018-11-29T13:30:24.349Z,4.34
2018-11-29T13:31:24.354Z,4.34
2018-11-29T13:32:24.373Z,4.37
2018-11-29T13:33:24.383Z,4.32
2018-11-29T13:34:39.056Z,4.45
2018-11-29T13:35:24.410Z,4.34
2018-11-29T13:36:24.506Z,4.34
2018-11-29T13:37:24.567Z,4.29
2018-11-29T13:38:24.455Z,4.2
2018-11-29T13:39:39.137Z,4.27
2018-11-29T13:42:24.517Z,4.45
2018-11-29T13:44:24.545Z,4.42
2018-11-29T13:45:24.662Z,4.4
2018-11-29T13:46:24.570Z,4.34
2018-11-29T13:47:24.580Z,4.32
2018-11-29T13:48:24.612Z,4.34
2018-11-29T13:49:24.607Z,4.33
2018-11-29T13:50:24.616Z,4.37
2018-11-29T13:51:24.632Z,4.27
2018-11-29T13:52:24.651Z,4.3
2018-11-29T13:53:24.661Z,4.23
2018-11-29T13:54:24.674Z,4.23
2018-11-29T13:55:24.850Z,4.18
2018-11-29T13:56:24.704Z,4.2
2018-11-29T13:57:24.718Z,4.15
2018-11-29T13:59:24.744Z,4.15
2018-11-29T14:00:24.753Z,4
2018-11-29T14:01:24.858Z,4.09
2018-11-29T14:02:24.786Z,3.98
2018-11-29T14:03:24.796Z,3.98